sensor_id;sensor_type;location;lat;lon;timestamp;temperature;humidity
38854;DHT22;24606;51.992;4.198;2022-07-22T00:04:13;26.90;48.50
38854;DHT22;24606;51.992;4.198;2022-07-22T00:09:16;26.90;48.50
38854;DHT22;24606;51.992;4.198;2022-07-22T00:14:18;26.90;48.50
38854;DHT22;24606;51.992;4.198;2022-07-22T00:19:20;26.90;48.40
38854;DHT22;24606;51.992;4.198;2022-07-22T00:24:26;26.90;48.40
38854;DHT22;24606;51.992;4.198;2022-07-22T00:29:28;26.90;48.40
38854;DHT22;24606;51.992;4.198;2022-07-22T00:34:30;26.80;48.30
38854;DHT22;24606;51.992;4.198;2022-07-22T00:39:33;26.80;48.40
38854;DHT22;24606;51.992;4.198;2022-07-22T00:44:35;26.80;48.40
38854;DHT22;24606;51.992;4.198;2022-07-22T00:49:37;26.80;48.50
38854;DHT22;24606;51.992;4.198;2022-07-22T00:54:40;26.80;48.40
38854;DHT22;24606;51.992;4.198;2022-07-22T00:59:42;26.70;48.20
38854;DHT22;24606;51.992;4.198;2022-07-22T01:04:44;26.70;48.40
38854;DHT22;24606;51.992;4.198;2022-07-22T01:09:48;26.70;48.80
38854;DHT22;24606;51.992;4.198;2022-07-22T01:14:50;26.70;48.30
38854;DHT22;24606;51.992;4.198;2022-07-22T01:19:52;26.70;48.30
38854;DHT22;24606;51.992;4.198;2022-07-22T01:24:55;26.70;48.30
38854;DHT22;24606;51.992;4.198;2022-07-22T01:29:57;26.60;48.20
38854;DHT22;24606;51.992;4.198;2022-07-22T01:34:59;26.60;48.20
38854;DHT22;24606;51.992;4.198;2022-07-22T01:40:03;26.60;48.20
38854;DHT22;24606;51.992;4.198;2022-07-22T01:45:05;26.60;48.20
38854;DHT22;24606;51.992;4.198;2022-07-22T01:50:09;26.60;48.30
38854;DHT22;24606;51.992;4.198;2022-07-22T01:55:13;26.60;48.20
38854;DHT22;24606;51.992;4.198;2022-07-22T02:00:16;26.60;48.20
38854;DHT22;24606;51.992;4.198;2022-07-22T02:05:18;26.60;48.30
38854;DHT22;24606;51.992;4.198;2022-07-22T02:10:21;26.50;48.20
38854;DHT22;24606;51.992;4.198;2022-07-22T02:15:23;26.50;48.10
38854;DHT22;24606;51.992;4.198;2022-07-22T02:20:26;26.50;48.10
38854;DHT22;24606;51.992;4.198;2022-07-22T02:25:29;26.50;48.00
38854;DHT22;24606;51.992;4.198;2022-07-22T02:30:31;26.50;48.10
38854;DHT22;24606;51.992;4.198;2022-07-22T02:35:33;26.50;48.10
38854;DHT22;24606;51.992;4.198;2022-07-22T02:40:36;26.40;48.00
38854;DHT22;24606;51.992;4.198;2022-07-22T02:45:38;26.40;48.00
38854;DHT22;24606;51.992;4.198;2022-07-22T02:50:45;26.40;48.00
38854;DHT22;24606;51.992;4.198;2022-07-22T02:55:48;26.40;48.10
38854;DHT22;24606;51.992;4.198;2022-07-22T03:00:50;26.40;48.00
38854;DHT22;24606;51.992;4.198;2022-07-22T03:05:52;26.30;48.00
38854;DHT22;24606;51.992;4.198;2022-07-22T03:10:55;26.30;48.60
38854;DHT22;24606;51.992;4.198;2022-07-22T03:15:57;26.30;47.90
38854;DHT22;24606;51.992;4.198;2022-07-22T03:20:59;26.30;48.00
38854;DHT22;24606;51.992;4.198;2022-07-22T03:26:02;26.30;47.90
38854;DHT22;24606;51.992;4.198;2022-07-22T03:31:04;26.30;47.90
38854;DHT22;24606;51.992;4.198;2022-07-22T03:36:06;26.30;47.90
38854;DHT22;24606;51.992;4.198;2022-07-22T03:41:09;26.30;48.00
38854;DHT22;24606;51.992;4.198;2022-07-22T03:46:11;26.30;47.90
38854;DHT22;24606;51.992;4.198;2022-07-22T03:51:13;26.30;47.90
38854;DHT22;24606;51.992;4.198;2022-07-22T03:56:16;26.20;47.90
38854;DHT22;24606;51.992;4.198;2022-07-22T04:01:18;26.20;47.80
38854;DHT22;24606;51.992;4.198;2022-07-22T04:06:20;26.20;47.90
38854;DHT22;24606;51.992;4.198;2022-07-22T04:11:23;26.20;47.90
38854;DHT22;24606;51.992;4.198;2022-07-22T04:16:25;26.10;47.90
38854;DHT22;24606;51.992;4.198;2022-07-22T04:21:27;26.10;47.80
38854;DHT22;24606;51.992;4.198;2022-07-22T04:26:30;26.10;47.90
38854;DHT22;24606;51.992;4.198;2022-07-22T04:31:32;26.10;47.80
38854;DHT22;24606;51.992;4.198;2022-07-22T04:36:34;26.10;47.80
38854;DHT22;24606;51.992;4.198;2022-07-22T04:41:37;26.10;47.80
38854;DHT22;24606;51.992;4.198;2022-07-22T04:46:39;26.10;47.80
38854;DHT22;24606;51.992;4.198;2022-07-22T04:51:41;26.10;47.80
38854;DHT22;24606;51.992;4.198;2022-07-22T04:56:44;26.00;47.80
38854;DHT22;24606;51.992;4.198;2022-07-22T05:01:46;26.00;47.70
38854;DHT22;24606;51.992;4.198;2022-07-22T05:06:48;26.10;47.80
38854;DHT22;24606;51.992;4.198;2022-07-22T05:11:51;26.00;47.70
38854;DHT22;24606;51.992;4.198;2022-07-22T05:16:53;26.00;47.70
38854;DHT22;24606;51.992;4.198;2022-07-22T05:21:55;26.00;47.70
38854;DHT22;24606;51.992;4.198;2022-07-22T05:26:58;26.00;47.60
38854;DHT22;24606;51.992;4.198;2022-07-22T05:32:00;26.00;47.70
38854;DHT22;24606;51.992;4.198;2022-07-22T05:37:02;26.00;47.80
38854;DHT22;24606;51.992;4.198;2022-07-22T05:42:06;26.00;47.60
38854;DHT22;24606;51.992;4.198;2022-07-22T05:47:08;26.00;47.60
38854;DHT22;24606;51.992;4.198;2022-07-22T05:52:10;26.00;47.60
38854;DHT22;24606;51.992;4.198;2022-07-22T05:57:13;26.00;47.50
38854;DHT22;24606;51.992;4.198;2022-07-22T06:02:15;26.00;47.50
38854;DHT22;24606;51.992;4.198;2022-07-22T06:07:17;26.00;47.50
38854;DHT22;24606;51.992;4.198;2022-07-22T06:12:20;26.00;47.60
38854;DHT22;24606;51.992;4.198;2022-07-22T06:17:22;26.00;47.50
38854;DHT22;24606;51.992;4.198;2022-07-22T06:22:24;26.00;47.40
38854;DHT22;24606;51.992;4.198;2022-07-22T06:27:27;26.10;47.50
38854;DHT22;24606;51.992;4.198;2022-07-22T06:32:29;26.10;47.50
38854;DHT22;24606;51.992;4.198;2022-07-22T06:37:31;26.10;47.40
38854;DHT22;24606;51.992;4.198;2022-07-22T06:42:34;26.10;47.40
38854;DHT22;24606;51.992;4.198;2022-07-22T06:47:36;26.10;47.40
38854;DHT22;24606;51.992;4.198;2022-07-22T06:52:38;26.20;47.40
38854;DHT22;24606;51.992;4.198;2022-07-22T06:57:42;26.20;47.40
38854;DHT22;24606;51.992;4.198;2022-07-22T07:02:43;26.20;47.30
38854;DHT22;24606;51.992;4.198;2022-07-22T07:07:45;26.20;47.40
38854;DHT22;24606;51.992;4.198;2022-07-22T07:12:49;26.20;47.40
38854;DHT22;24606;51.992;4.198;2022-07-22T07:17:51;26.10;47.30
38854;DHT22;24606;51.992;4.198;2022-07-22T07:22:53;26.20;47.40
38854;DHT22;24606;51.992;4.198;2022-07-22T07:27:56;26.20;47.40
38854;DHT22;24606;51.992;4.198;2022-07-22T07:32:58;26.10;47.30
38854;DHT22;24606;51.992;4.198;2022-07-22T07:38:00;26.10;47.30
38854;DHT22;24606;51.992;4.198;2022-07-22T07:43:04;26.10;47.30
38854;DHT22;24606;51.992;4.198;2022-07-22T07:48:06;26.10;47.30
38854;DHT22;24606;51.992;4.198;2022-07-22T07:53:08;26.20;47.30
38854;DHT22;24606;51.992;4.198;2022-07-22T07:58:11;26.20;47.40
38854;DHT22;24606;51.992;4.198;2022-07-22T08:03:13;26.20;47.30
38854;DHT22;24606;51.992;4.198;2022-07-22T08:08:15;26.20;47.30
38854;DHT22;24606;51.992;4.198;2022-07-22T08:13:19;26.20;47.20
38854;DHT22;24606;51.992;4.198;2022-07-22T08:18:21;26.30;47.20
38854;DHT22;24606;51.992;4.198;2022-07-22T08:23:23;26.30;47.20
38854;DHT22;24606;51.992;4.198;2022-07-22T08:28:26;26.30;47.10
38854;DHT22;24606;51.992;4.198;2022-07-22T08:33:28;26.40;47.20
38854;DHT22;24606;51.992;4.198;2022-07-22T08:38:30;26.30;47.10
38854;DHT22;24606;51.992;4.198;2022-07-22T08:43:35;26.40;47.20
38854;DHT22;24606;51.992;4.198;2022-07-22T08:48:38;26.30;47.10
38854;DHT22;24606;51.992;4.198;2022-07-22T08:53:40;26.40;47.10
38854;DHT22;24606;51.992;4.198;2022-07-22T08:58:43;26.40;47.00
38854;DHT22;24606;51.992;4.198;2022-07-22T09:03:47;26.50;46.90
38854;DHT22;24606;51.992;4.198;2022-07-22T09:08:51;26.60;47.00
38854;DHT22;24606;51.992;4.198;2022-07-22T09:13:56;26.50;47.70
38854;DHT22;24606;51.992;4.198;2022-07-22T09:18:58;26.50;47.10
38854;DHT22;24606;51.992;4.198;2022-07-22T09:24:00;26.60;47.00
38854;DHT22;24606;51.992;4.198;2022-07-22T09:29:04;26.60;47.10
38854;DHT22;24606;51.992;4.198;2022-07-22T09:34:06;26.60;47.00
38854;DHT22;24606;51.992;4.198;2022-07-22T09:39:25;26.60;47.00
38854;DHT22;24606;51.992;4.198;2022-07-22T09:44:29;26.70;46.90
38854;DHT22;24606;51.992;4.198;2022-07-22T09:49:34;26.70;47.00
38854;DHT22;24606;51.992;4.198;2022-07-22T09:54:38;26.70;47.00
38854;DHT22;24606;51.992;4.198;2022-07-22T09:59:41;26.80;47.00
38854;DHT22;24606;51.992;4.198;2022-07-22T10:04:46;26.90;46.80
38854;DHT22;24606;51.992;4.198;2022-07-22T10:09:48;26.90;46.90
38854;DHT22;24606;51.992;4.198;2022-07-22T10:14:54;27.00;46.80
38854;DHT22;24606;51.992;4.198;2022-07-22T10:19:57;27.10;46.70
38854;DHT22;24606;51.992;4.198;2022-07-22T10:25:00;27.20;46.60
38854;DHT22;24606;51.992;4.198;2022-07-22T10:30:04;27.10;46.60
38854;DHT22;24606;51.992;4.198;2022-07-22T10:35:25;27.10;46.90
38854;DHT22;24606;51.992;4.198;2022-07-22T10:40:28;27.10;46.90
38854;DHT22;24606;51.992;4.198;2022-07-22T10:45:33;27.10;47.00
38854;DHT22;24606;51.992;4.198;2022-07-22T10:50:40;27.10;46.90
38854;DHT22;24606;51.992;4.198;2022-07-22T10:56:04;27.20;47.10
38854;DHT22;24606;51.992;4.198;2022-07-22T11:01:09;27.30;47.00
38854;DHT22;24606;51.992;4.198;2022-07-22T11:06:23;27.30;46.80
38854;DHT22;24606;51.992;4.198;2022-07-22T11:11:38;27.30;46.80
38854;DHT22;24606;51.992;4.198;2022-07-22T11:16:44;27.50;46.80
38854;DHT22;24606;51.992;4.198;2022-07-22T11:21:51;27.60;46.60
38854;DHT22;24606;51.992;4.198;2022-07-22T11:26:54;27.60;46.70
38854;DHT22;24606;51.992;4.198;2022-07-22T11:31:58;27.50;46.80
38854;DHT22;24606;51.992;4.198;2022-07-22T11:37:00;27.60;46.80
38854;DHT22;24606;51.992;4.198;2022-07-22T11:42:02;27.70;46.80
38854;DHT22;24606;51.992;4.198;2022-07-22T11:47:07;27.70;46.80
38854;DHT22;24606;51.992;4.198;2022-07-22T11:52:10;27.70;46.90
38854;DHT22;24606;51.992;4.198;2022-07-22T11:57:14;27.70;46.80
38854;DHT22;24606;51.992;4.198;2022-07-22T12:02:18;27.80;47.00
38854;DHT22;24606;51.992;4.198;2022-07-22T12:07:20;27.90;46.90
38854;DHT22;24606;51.992;4.198;2022-07-22T12:12:38;27.90;46.80
38854;DHT22;24606;51.992;4.198;2022-07-22T12:17:42;27.90;47.00
38854;DHT22;24606;51.992;4.198;2022-07-22T12:22:45;27.90;47.20
38854;DHT22;24606;51.992;4.198;2022-07-22T12:27:59;27.90;47.40
38854;DHT22;24606;51.992;4.198;2022-07-22T12:33:03;28.00;47.20
38854;DHT22;24606;51.992;4.198;2022-07-22T12:38:06;28.00;47.40
38854;DHT22;24606;51.992;4.198;2022-07-22T12:43:09;28.00;47.50
38854;DHT22;24606;51.992;4.198;2022-07-22T12:48:12;28.10;47.30
38854;DHT22;24606;51.992;4.198;2022-07-22T12:53:15;28.10;47.40
38854;DHT22;24606;51.992;4.198;2022-07-22T12:58:18;28.20;47.60
38854;DHT22;24606;51.992;4.198;2022-07-22T13:03:22;28.20;47.60
38854;DHT22;24606;51.992;4.198;2022-07-22T13:08:27;28.30;47.50
38854;DHT22;24606;51.992;4.198;2022-07-22T13:13:29;28.30;47.10
38854;DHT22;24606;51.992;4.198;2022-07-22T13:18:32;28.20;47.10
38854;DHT22;24606;51.992;4.198;2022-07-22T13:23:34;28.30;47.60
38854;DHT22;24606;51.992;4.198;2022-07-22T13:28:36;28.40;47.60
38854;DHT22;24606;51.992;4.198;2022-07-22T13:33:39;28.40;47.70
38854;DHT22;24606;51.992;4.198;2022-07-22T13:38:41;28.50;47.80
38854;DHT22;24606;51.992;4.198;2022-07-22T13:43:43;28.50;47.60
38854;DHT22;24606;51.992;4.198;2022-07-22T13:48:46;28.60;48.20
38854;DHT22;24606;51.992;4.198;2022-07-22T13:53:48;28.60;48.00
38854;DHT22;24606;51.992;4.198;2022-07-22T13:58:50;28.60;47.60
38854;DHT22;24606;51.992;4.198;2022-07-22T14:03:53;28.70;48.30
38854;DHT22;24606;51.992;4.198;2022-07-22T14:08:55;28.80;48.50
38854;DHT22;24606;51.992;4.198;2022-07-22T14:13:57;28.80;48.50
38854;DHT22;24606;51.992;4.198;2022-07-22T14:19:01;28.80;48.10
38854;DHT22;24606;51.992;4.198;2022-07-22T14:24:04;28.80;48.50
38854;DHT22;24606;51.992;4.198;2022-07-22T14:29:06;28.90;48.00
38854;DHT22;24606;51.992;4.198;2022-07-22T14:34:09;28.90;48.50
38854;DHT22;24606;51.992;4.198;2022-07-22T14:39:11;29.00;48.60
38854;DHT22;24606;51.992;4.198;2022-07-22T14:44:13;29.00;48.40
38854;DHT22;24606;51.992;4.198;2022-07-22T14:49:16;29.00;48.30
38854;DHT22;24606;51.992;4.198;2022-07-22T14:54:18;29.10;48.40
38854;DHT22;24606;51.992;4.198;2022-07-22T14:59:20;29.10;48.70
38854;DHT22;24606;51.992;4.198;2022-07-22T15:04:23;29.10;48.70
38854;DHT22;24606;51.992;4.198;2022-07-22T15:09:26;29.10;48.50
38854;DHT22;24606;51.992;4.198;2022-07-22T15:14:28;29.20;48.70
38854;DHT22;24606;51.992;4.198;2022-07-22T15:19:31;29.20;48.50
38854;DHT22;24606;51.992;4.198;2022-07-22T15:24:33;29.20;48.70
38854;DHT22;24606;51.992;4.198;2022-07-22T15:29:35;29.20;48.50
38854;DHT22;24606;51.992;4.198;2022-07-22T15:34:38;29.20;48.50
38854;DHT22;24606;51.992;4.198;2022-07-22T15:39:40;29.30;48.60
38854;DHT22;24606;51.992;4.198;2022-07-22T15:44:41;29.30;48.70
38854;DHT22;24606;51.992;4.198;2022-07-22T15:49:45;29.30;48.30
38854;DHT22;24606;51.992;4.198;2022-07-22T15:54:46;29.20;48.10
38854;DHT22;24606;51.992;4.198;2022-07-22T15:59:48;29.30;48.00
38854;DHT22;24606;51.992;4.198;2022-07-22T16:04:52;29.30;48.10
38854;DHT22;24606;51.992;4.198;2022-07-22T16:09:53;29.20;47.90
38854;DHT22;24606;51.992;4.198;2022-07-22T16:14:55;29.30;48.20
38854;DHT22;24606;51.992;4.198;2022-07-22T16:19:58;29.30;48.30
38854;DHT22;24606;51.992;4.198;2022-07-22T16:25:00;29.40;48.40
38854;DHT22;24606;51.992;4.198;2022-07-22T16:30:02;29.40;48.30
38854;DHT22;24606;51.992;4.198;2022-07-22T16:35:07;29.40;48.10
38854;DHT22;24606;51.992;4.198;2022-07-22T16:40:10;29.40;48.10
38854;DHT22;24606;51.992;4.198;2022-07-22T16:45:12;29.40;48.10
38854;DHT22;24606;51.992;4.198;2022-07-22T16:50:15;29.40;48.00
38854;DHT22;24606;51.992;4.198;2022-07-22T16:55:17;29.40;48.10
38854;DHT22;24606;51.992;4.198;2022-07-22T17:00:19;29.40;48.20
38854;DHT22;24606;51.992;4.198;2022-07-22T17:05:22;29.30;48.20
38854;DHT22;24606;51.992;4.198;2022-07-22T17:10:24;29.30;48.10
38854;DHT22;24606;51.992;4.198;2022-07-22T17:15:26;29.30;48.10
38854;DHT22;24606;51.992;4.198;2022-07-22T17:20:29;29.30;48.10
38854;DHT22;24606;51.992;4.198;2022-07-22T17:25:31;29.20;47.90
38854;DHT22;24606;51.992;4.198;2022-07-22T17:30:33;29.20;47.70
38854;DHT22;24606;51.992;4.198;2022-07-22T17:35:36;29.20;47.70
38854;DHT22;24606;51.992;4.198;2022-07-22T17:40:39;29.20;47.60
38854;DHT22;24606;51.992;4.198;2022-07-22T17:45:41;29.20;47.60
38854;DHT22;24606;51.992;4.198;2022-07-22T17:50:44;29.20;47.50
38854;DHT22;24606;51.992;4.198;2022-07-22T17:55:46;29.20;47.70
38854;DHT22;24606;51.992;4.198;2022-07-22T18:00:48;29.10;47.60
38854;DHT22;24606;51.992;4.198;2022-07-22T18:05:51;29.20;47.60
38854;DHT22;24606;51.992;4.198;2022-07-22T18:10:53;29.10;47.60
38854;DHT22;24606;51.992;4.198;2022-07-22T18:15:57;29.10;47.60
38854;DHT22;24606;51.992;4.198;2022-07-22T18:21:00;29.20;47.60
38854;DHT22;24606;51.992;4.198;2022-07-22T18:26:03;29.10;47.50
38854;DHT22;24606;51.992;4.198;2022-07-22T18:31:06;29.20;47.70
38854;DHT22;24606;51.992;4.198;2022-07-22T18:36:09;29.10;47.60
38854;DHT22;24606;51.992;4.198;2022-07-22T18:41:11;29.10;47.60
38854;DHT22;24606;51.992;4.198;2022-07-22T18:46:13;29.10;47.70
38854;DHT22;24606;51.992;4.198;2022-07-22T18:51:16;29.10;47.70
38854;DHT22;24606;51.992;4.198;2022-07-22T18:56:18;29.10;47.60
38854;DHT22;24606;51.992;4.198;2022-07-22T19:01:20;29.10;47.70
38854;DHT22;24606;51.992;4.198;2022-07-22T19:06:23;29.10;47.80
38854;DHT22;24606;51.992;4.198;2022-07-22T19:11:25;29.10;47.80
38854;DHT22;24606;51.992;4.198;2022-07-22T19:16:27;29.10;47.80
38854;DHT22;24606;51.992;4.198;2022-07-22T19:21:30;29.00;47.70
38854;DHT22;24606;51.992;4.198;2022-07-22T19:26:32;29.00;47.80
38854;DHT22;24606;51.992;4.198;2022-07-22T19:31:34;29.00;47.80
38854;DHT22;24606;51.992;4.198;2022-07-22T19:36:37;29.00;47.70
38854;DHT22;24606;51.992;4.198;2022-07-22T19:41:39;28.90;47.60
38854;DHT22;24606;51.992;4.198;2022-07-22T19:46:41;28.90;47.60
38854;DHT22;24606;51.992;4.198;2022-07-22T19:51:44;28.90;47.70
38854;DHT22;24606;51.992;4.198;2022-07-22T19:56:46;28.80;47.50
38854;DHT22;24606;51.992;4.198;2022-07-22T20:01:48;28.80;47.50
38854;DHT22;24606;51.992;4.198;2022-07-22T20:06:51;28.80;47.50
38854;DHT22;24606;51.992;4.198;2022-07-22T20:11:53;28.80;48.10
38854;DHT22;24606;51.992;4.198;2022-07-22T20:16:55;28.70;47.50
38854;DHT22;24606;51.992;4.198;2022-07-22T20:21:58;28.70;47.50
38854;DHT22;24606;51.992;4.198;2022-07-22T20:27:00;28.70;48.10
38854;DHT22;24606;51.992;4.198;2022-07-22T20:32:02;28.60;47.40
38854;DHT22;24606;51.992;4.198;2022-07-22T20:37:05;28.60;47.40
38854;DHT22;24606;51.992;4.198;2022-07-22T20:42:07;28.60;47.40
38854;DHT22;24606;51.992;4.198;2022-07-22T20:47:10;28.60;47.40
38854;DHT22;24606;51.992;4.198;2022-07-22T20:52:13;28.60;47.40
38854;DHT22;24606;51.992;4.198;2022-07-22T20:57:16;28.50;47.30
38854;DHT22;24606;51.992;4.198;2022-07-22T21:02:18;28.50;47.40
38854;DHT22;24606;51.992;4.198;2022-07-22T21:07:21;28.40;47.30
38854;DHT22;24606;51.992;4.198;2022-07-22T21:12:23;28.40;47.20
38854;DHT22;24606;51.992;4.198;2022-07-22T21:17:25;28.40;47.30
38854;DHT22;24606;51.992;4.198;2022-07-22T21:22:28;28.40;47.30
38854;DHT22;24606;51.992;4.198;2022-07-22T21:27:30;28.30;47.20
38854;DHT22;24606;51.992;4.198;2022-07-22T21:32:32;28.30;47.20
38854;DHT22;24606;51.992;4.198;2022-07-22T21:37:35;28.30;47.20
38854;DHT22;24606;51.992;4.198;2022-07-22T21:42:37;28.30;47.30
38854;DHT22;24606;51.992;4.198;2022-07-22T21:47:39;28.20;47.10
38854;DHT22;24606;51.992;4.198;2022-07-22T21:52:43;28.20;47.20
38854;DHT22;24606;51.992;4.198;2022-07-22T21:57:45;28.10;47.10
38854;DHT22;24606;51.992;4.198;2022-07-22T22:02:47;28.20;47.30
38854;DHT22;24606;51.992;4.198;2022-07-22T22:07:50;28.10;47.20
38854;DHT22;24606;51.992;4.198;2022-07-22T22:12:52;28.10;47.20
38854;DHT22;24606;51.992;4.198;2022-07-22T22:17:53;28.10;47.20
38854;DHT22;24606;51.992;4.198;2022-07-22T22:22:57;28.00;47.20
38854;DHT22;24606;51.992;4.198;2022-07-22T22:27:59;28.00;47.10
38854;DHT22;24606;51.992;4.198;2022-07-22T22:33:01;28.00;47.20
38854;DHT22;24606;51.992;4.198;2022-07-22T22:38:04;27.90;47.20
38854;DHT22;24606;51.992;4.198;2022-07-22T22:43:06;27.90;47.20
38854;DHT22;24606;51.992;4.198;2022-07-22T22:48:08;27.90;47.20
38854;DHT22;24606;51.992;4.198;2022-07-22T22:53:11;27.90;47.20
38854;DHT22;24606;51.992;4.198;2022-07-22T22:58:13;27.80;47.20
38854;DHT22;24606;51.992;4.198;2022-07-22T23:03:15;27.80;47.20
38854;DHT22;24606;51.992;4.198;2022-07-22T23:08:18;27.80;47.30
38854;DHT22;24606;51.992;4.198;2022-07-22T23:13:20;27.70;47.20
38854;DHT22;24606;51.992;4.198;2022-07-22T23:18:21;27.70;47.20
38854;DHT22;24606;51.992;4.198;2022-07-22T23:23:24;27.60;47.10
38854;DHT22;24606;51.992;4.198;2022-07-22T23:28:26;27.60;47.10
38854;DHT22;24606;51.992;4.198;2022-07-22T23:33:28;27.60;47.20
38854;DHT22;24606;51.992;4.198;2022-07-22T23:38:31;27.50;47.10
38854;DHT22;24606;51.992;4.198;2022-07-22T23:43:33;27.50;47.20
38854;DHT22;24606;51.992;4.198;2022-07-22T23:48:35;27.50;47.20
38854;DHT22;24606;51.992;4.198;2022-07-22T23:53:38;27.50;47.20
38854;DHT22;24606;51.992;4.198;2022-07-22T23:58:40;27.40;47.00
